Terminal Aerodrome Forecast
Issued by NWS

Home | Current Version | Previous Version | Text Only | Print | Product List | Glossary On
Versions: 1 2 3 4 5 6 7 8 9 10 11 12 13 14 15 16 17 18 19
000
FTUS46 KLOX 210900 AAA
TAFSBP
TAF AMD
KSBP 210903Z 2109/2206 31008KT P6SM SKC
     FM211100 VRB03KT P6SM OVC008
     FM211400 VRB03KT 6SM BR OVC005
     FM211600 VRB03KT P6SM SKC
     FM212000 31012KT P6SM SKC
     FM220500 32007KT P6SM SKC=

USA.gov is the U.S. government's official web portal to all federal, state and local government web resources and services.